createdAt,value
2017-08-19T00:01:24.829Z,3.03
2017-08-19T00:03:52.451Z,3.87
2017-08-19T00:06:19.965Z,6.62
2017-08-19T00:08:47.518Z,4.60
2017-08-19T00:11:15.110Z,4.10
2017-08-19T00:13:42.632Z,2.65
2017-08-19T00:16:10.193Z,3.15
2017-08-19T00:18:37.793Z,3.55
2017-08-19T00:21:05.325Z,4.22
2017-08-19T00:23:32.922Z,4.32
2017-08-19T00:26:01.266Z,7.20
2017-08-19T00:28:28.776Z,5.20
2017-08-19T00:30:56.542Z,8.93
2017-08-19T00:33:24.110Z,9.07
2017-08-19T00:35:51.648Z,6.72
2017-08-19T00:38:19.185Z,3.10
2017-08-19T00:40:46.746Z,5.62
2017-08-19T00:43:14.285Z,4.97
2017-08-19T00:45:41.828Z,7.62
2017-08-19T00:48:09.432Z,3.90
2017-08-19T00:50:36.971Z,4.80
2017-08-19T00:53:04.618Z,4.30
2017-08-19T00:55:32.233Z,5.28
2017-08-19T00:57:59.779Z,7.53
2017-08-19T01:00:27.296Z,5.85
2017-08-19T01:02:54.892Z,8.35
2017-08-19T01:05:23.555Z,5.72
2017-08-19T01:07:51.137Z,7.30
2017-08-19T01:10:18.712Z,7.90
2017-08-19T01:12:46.314Z,10.20
2017-08-19T01:15:14.665Z,11.18
2017-08-19T01:17:42.262Z,9.80
2017-08-19T01:20:09.802Z,11.93
2017-08-19T01:22:37.294Z,9.43
2017-08-19T01:25:16.749Z,8.57
2017-08-19T01:27:44.293Z,8.38
2017-08-19T01:30:11.836Z,7.28
2017-08-19T01:32:39.369Z,6.35
2017-08-19T01:35:06.896Z,6.22
2017-08-19T01:37:34.462Z,5.25
2017-08-19T01:40:02.343Z,6.10
2017-08-19T01:42:29.933Z,5.53
2017-08-19T01:44:58.154Z,5.45
2017-08-19T01:47:25.739Z,6.10
2017-08-19T01:49:53.294Z,5.68
2017-08-19T01:52:20.893Z,6.43
2017-08-19T01:54:48.516Z,6.25
2017-08-19T01:57:16.044Z,6.35
2017-08-19T01:59:43.617Z,6.07
2017-08-19T02:02:11.205Z,8.65
2017-08-19T02:04:38.781Z,8.40
2017-08-19T02:07:06.347Z,8.40
2017-08-19T02:09:33.989Z,8.80
2017-08-19T02:12:01.521Z,5.97
2017-08-19T02:14:29.102Z,5.80
2017-08-19T02:16:56.829Z,9.48
2017-08-19T02:19:24.365Z,8.27
2017-08-19T02:21:51.918Z,8.07
2017-08-19T02:24:20.308Z,9.95
2017-08-19T02:26:47.842Z,10.63
2017-08-19T02:29:15.353Z,13.18
2017-08-19T02:31:42.951Z,7.85
2017-08-19T02:34:10.587Z,9.45
2017-08-19T02:36:38.781Z,8.50
2017-08-19T02:39:06.523Z,8.48
2017-08-19T02:41:34.021Z,8.35
2017-08-19T02:44:01.595Z,8.77
2017-08-19T02:46:29.303Z,10.48
2017-08-19T02:48:56.847Z,11.88
2017-08-19T02:51:24.421Z,13.05
2017-08-19T02:53:52.628Z,13.52
2017-08-19T02:56:20.194Z,11.57
2017-08-19T02:58:47.876Z,17.30
2017-08-19T03:01:15.650Z,14.02
2017-08-19T03:03:43.155Z,13.20
2017-08-19T03:06:10.736Z,13.65
2017-08-19T03:08:38.510Z,16.33
2017-08-19T03:11:06.095Z,15.40
2017-08-19T03:13:33.685Z,16.65
2017-08-19T03:16:02.194Z,16.85
2017-08-19T03:18:29.775Z,15.75
2017-08-19T03:20:57.346Z,14.02
2017-08-19T03:23:25.111Z,15.38
2017-08-19T03:25:52.674Z,17.12
2017-08-19T03:28:21.374Z,17.87
2017-08-19T03:30:48.941Z,22.48
2017-08-19T03:33:16.526Z,21.98
2017-08-19T03:35:44.079Z,19.35
2017-08-19T03:38:11.806Z,16.83
2017-08-19T03:40:39.411Z,21.58
2017-08-19T03:43:06.979Z,19.30
2017-08-19T03:45:34.526Z,27.13
2017-08-19T03:48:02.109Z,27.58
2017-08-19T03:50:29.641Z,16.83
2017-08-19T03:52:57.205Z,23.48
2017-08-19T03:55:24.764Z,19.25
2017-08-19T03:57:52.349Z,26.10
2017-08-19T04:00:20.093Z,20.27
2017-08-19T04:02:48.390Z,24.87
2017-08-19T04:05:15.973Z,19.40
2017-08-19T04:07:43.719Z,25.17
2017-08-19T04:10:13.292Z,17.77
2017-08-19T04:12:40.874Z,16.92
2017-08-19T04:15:08.556Z,20.58
2017-08-19T04:17:36.112Z,13.13
2017-08-19T04:20:03.629Z,16.23
2017-08-19T04:22:31.223Z,11.88
2017-08-19T04:24:58.757Z,12.93
2017-08-19T04:27:26.310Z,10.43
2017-08-19T04:29:53.863Z,10.98
2017-08-19T04:32:21.925Z,8.57
2017-08-19T04:34:49.477Z,10.27
2017-08-19T04:37:17.006Z,14.35
2017-08-19T04:39:44.562Z,7.68
2017-08-19T04:42:12.124Z,17.85
2017-08-19T04:44:39.696Z,10.18
2017-08-19T04:47:07.258Z,10.85
2017-08-19T04:49:35.485Z,19.98
2017-08-19T04:52:03.018Z,9.65
2017-08-19T04:54:31.239Z,13.62
2017-08-19T04:56:58.826Z,11.07
2017-08-19T04:59:26.447Z,10.02
2017-08-19T05:01:54.054Z,12.63
2017-08-19T05:04:21.626Z,11.38
2017-08-19T05:06:49.792Z,9.63
2017-08-19T05:09:17.314Z,9.63
2017-08-19T05:11:44.907Z,11.05
2017-08-19T05:14:12.492Z,13.38
2017-08-19T05:16:40.053Z,10.23
2017-08-19T05:19:07.609Z,9.43
2017-08-19T05:21:35.146Z,7.20
2017-08-19T05:24:03.066Z,9.25
2017-08-19T05:26:30.587Z,14.60
2017-08-19T05:28:59.159Z,11.02
2017-08-19T05:31:26.696Z,5.97
2017-08-19T05:33:54.273Z,7.85
2017-08-19T05:36:22.050Z,11.82
2017-08-19T05:38:49.633Z,5.45
2017-08-19T05:41:17.218Z,4.87
2017-08-19T05:43:44.846Z,5.35
2017-08-19T05:46:13.114Z,10.45
2017-08-19T05:48:40.854Z,4.40
2017-08-19T05:51:08.471Z,4.72
2017-08-19T05:53:36.041Z,3.70
2017-08-19T05:56:03.604Z,5.07
2017-08-19T05:58:31.417Z,4.47
2017-08-19T06:00:59.057Z,9.43
2017-08-19T06:03:27.350Z,9.25
2017-08-19T06:05:54.945Z,6.97
2017-08-19T06:08:22.582Z,4.57
2017-08-19T06:10:50.142Z,8.40
2017-08-19T06:13:18.237Z,8.60
2017-08-19T06:15:46.605Z,7.30
2017-08-19T06:18:14.159Z,3.33
2017-08-19T06:20:41.766Z,5.55
2017-08-19T06:23:10.489Z,4.68
2017-08-19T06:25:38.053Z,4.75
2017-08-19T06:28:05.925Z,4.10
2017-08-19T06:30:39.588Z,3.45
2017-08-19T06:33:07.223Z,3.50
2017-08-19T06:35:34.747Z,5.03
2017-08-19T06:38:02.385Z,7.65
2017-08-19T06:40:30.172Z,2.60
2017-08-19T06:42:57.705Z,3.35
2017-08-19T06:45:25.360Z,6.82
2017-08-19T06:47:53.794Z,2.53
2017-08-19T06:50:21.382Z,3.60
2017-08-19T06:52:48.973Z,5.07
2017-08-19T06:55:16.614Z,4.35
2017-08-19T06:57:44.923Z,7.12
2017-08-19T07:00:13.270Z,4.70
2017-08-19T07:02:40.922Z,4.93
2017-08-19T07:05:08.555Z,6.30
2017-08-19T07:07:36.258Z,2.20
2017-08-19T07:10:08.376Z,4.82
2017-08-19T07:12:35.953Z,8.68
2017-08-19T07:15:03.502Z,2.90
2017-08-19T07:17:31.179Z,5.25
2017-08-19T07:19:59.050Z,2.72
2017-08-19T07:22:26.593Z,2.10
2017-08-19T07:24:54.511Z,2.35
2017-08-19T07:27:22.150Z,7.82
2017-08-19T07:29:50.038Z,2.58
2017-08-19T07:32:17.878Z,8.63
2017-08-19T07:34:45.488Z,5.82
2017-08-19T07:37:13.191Z,3.50
2017-08-19T07:39:40.914Z,2.70
2017-08-19T07:42:08.454Z,6.57
2017-08-19T07:44:36.196Z,8.48
2017-08-19T07:47:04.704Z,2.95
2017-08-19T07:49:32.308Z,4.50
2017-08-19T07:51:59.900Z,7.03
2017-08-19T07:54:27.512Z,5.50
2017-08-19T07:56:55.122Z,2.10
2017-08-19T07:59:22.823Z,1.62
2017-08-19T08:01:50.637Z,1.60
2017-08-19T08:04:18.385Z,2.20
2017-08-19T08:06:45.980Z,1.70
2017-08-19T08:09:13.747Z,3.00
2017-08-19T08:11:41.339Z,3.80
2017-08-19T08:14:08.994Z,4.32
2017-08-19T08:16:36.790Z,2.10
2017-08-19T08:19:04.349Z,1.90
2017-08-19T08:21:31.939Z,2.03
2017-08-19T08:24:00.359Z,2.92
2017-08-19T08:26:27.881Z,3.87
2017-08-19T08:28:55.457Z,5.20
2017-08-19T08:31:23.153Z,2.28
2017-08-19T08:33:50.760Z,2.42
2017-08-19T08:36:18.978Z,3.65
2017-08-19T08:38:46.519Z,7.10
2017-08-19T08:41:14.055Z,3.17
2017-08-19T08:43:41.595Z,7.95
2017-08-19T08:46:09.326Z,3.55
2017-08-19T08:48:36.867Z,4.40
2017-08-19T08:51:04.440Z,1.70
2017-08-19T08:53:32.984Z,3.08
2017-08-19T08:56:00.592Z,6.15
2017-08-19T08:58:28.738Z,2.67
2017-08-19T09:00:56.356Z,2.08
2017-08-19T09:03:23.906Z,5.10
2017-08-19T09:05:51.549Z,2.83
2017-08-19T09:08:19.184Z,2.22
2017-08-19T09:10:46.804Z,4.40
2017-08-19T09:13:14.560Z,1.75
2017-08-19T09:15:42.269Z,5.22
2017-08-19T09:18:09.892Z,2.40
2017-08-19T09:20:37.507Z,1.90
2017-08-19T09:23:06.030Z,2.05
2017-08-19T09:25:33.625Z,4.68
2017-08-19T09:28:01.245Z,6.20
2017-08-19T09:30:28.923Z,6.32
2017-08-19T09:32:56.562Z,3.03
2017-08-19T09:35:24.185Z,3.37
2017-08-19T09:37:55.736Z,3.47
2017-08-19T09:40:23.334Z,3.03
2017-08-19T09:42:50.942Z,3.42
2017-08-19T09:45:19.519Z,3.37
2017-08-19T09:47:48.020Z,5.18
2017-08-19T09:50:16.827Z,6.47
2017-08-19T09:52:44.474Z,1.58
2017-08-19T09:55:12.102Z,5.65
2017-08-19T09:57:39.659Z,3.10
2017-08-19T10:00:07.435Z,12.35
2017-08-19T10:02:36.017Z,4.03
2017-08-19T10:05:03.620Z,2.00
2017-08-19T10:07:41.899Z,4.28
2017-08-19T10:10:21.066Z,4.85
2017-08-19T10:12:48.704Z,4.30
2017-08-19T10:15:16.963Z,3.40
2017-08-19T10:17:44.582Z,6.33
2017-08-19T10:20:17.075Z,1.60
2017-08-19T10:22:44.616Z,4.10
2017-08-19T10:25:12.203Z,2.03
2017-08-19T10:27:39.845Z,2.27
2017-08-19T10:30:07.479Z,4.63
2017-08-19T10:32:35.091Z,3.60
2017-08-19T10:35:02.726Z,10.47
2017-08-19T10:37:30.318Z,7.80
2017-08-19T10:39:57.891Z,6.60
2017-08-19T10:42:25.539Z,4.93
2017-08-19T10:44:53.097Z,3.57
2017-08-19T10:47:27.960Z,2.03
2017-08-19T10:49:55.560Z,3.37
2017-08-19T10:52:23.147Z,2.40
2017-08-19T10:54:52.136Z,2.23
2017-08-19T10:57:19.838Z,4.73
2017-08-19T10:59:49.622Z,7.77
2017-08-19T11:02:17.274Z,3.27
2017-08-19T11:04:44.911Z,1.93
2017-08-19T11:07:12.563Z,7.53
2017-08-19T11:09:40.263Z,3.27
2017-08-19T11:12:07.852Z,2.43
2017-08-19T11:14:35.521Z,3.23
2017-08-19T11:17:03.169Z,6.70
2017-08-19T11:19:30.805Z,3.47
2017-08-19T11:21:58.502Z,3.33
2017-08-19T11:24:26.240Z,10.10
2017-08-19T11:26:53.883Z,2.80
2017-08-19T11:29:21.598Z,6.10
2017-08-19T11:31:49.414Z,1.93
2017-08-19T11:34:16.977Z,3.70
2017-08-19T11:36:44.627Z,1.87
2017-08-19T11:39:12.606Z,4.77
2017-08-19T11:41:41.139Z,3.47
2017-08-19T11:44:08.784Z,4.70
2017-08-19T11:46:36.602Z,8.93
2017-08-19T11:49:04.298Z,3.10
2017-08-19T11:51:31.894Z,1.90
2017-08-19T11:53:59.589Z,6.83
2017-08-19T11:56:27.270Z,6.10
2017-08-19T11:58:54.863Z,2.80
2017-08-19T12:01:22.502Z,3.67
2017-08-19T12:03:50.675Z,2.87
2017-08-19T12:06:18.370Z,2.27
2017-08-19T12:08:46.048Z,4.60
2017-08-19T12:11:13.635Z,2.63
2017-08-19T12:13:41.279Z,4.13
2017-08-19T12:16:09.010Z,2.80
2017-08-19T12:18:37.776Z,2.73
2017-08-19T12:21:06.306Z,3.17
2017-08-19T12:23:34.150Z,3.53
2017-08-19T12:26:01.751Z,2.93
2017-08-19T12:28:29.386Z,5.17
2017-08-19T12:30:57.051Z,3.33
2017-08-19T12:33:25.628Z,4.80
2017-08-19T12:35:53.303Z,5.60
2017-08-19T12:38:21.762Z,4.70
2017-08-19T12:40:49.416Z,2.27
2017-08-19T12:43:17.008Z,2.13
2017-08-19T12:45:45.833Z,1.90
2017-08-19T12:48:13.438Z,8.10
2017-08-19T12:50:41.844Z,9.73
2017-08-19T12:53:09.552Z,3.67
2017-08-19T12:55:37.119Z,4.43
2017-08-19T12:58:04.828Z,5.47
2017-08-19T13:00:32.823Z,3.53
2017-08-19T13:03:00.510Z,4.82
2017-08-19T13:05:29.066Z,2.40
2017-08-19T13:07:57.645Z,3.90
2017-08-19T13:10:25.272Z,4.55
2017-08-19T13:12:52.894Z,3.45
2017-08-19T13:15:20.668Z,5.60
2017-08-19T13:17:49.053Z,4.32
2017-08-19T13:20:16.673Z,4.15
2017-08-19T13:22:44.726Z,1.90
2017-08-19T13:25:12.308Z,2.15
2017-08-19T13:27:39.893Z,4.72
2017-08-19T13:30:07.522Z,4.28
2017-08-19T13:32:35.518Z,2.47
2017-08-19T13:35:03.082Z,3.45
2017-08-19T13:37:30.764Z,6.00
2017-08-19T13:39:58.406Z,5.25
2017-08-19T13:42:25.966Z,3.95
2017-08-19T13:44:53.628Z,5.12
2017-08-19T13:47:21.239Z,5.72
2017-08-19T13:49:48.821Z,4.68
2017-08-19T13:52:16.452Z,3.58
2017-08-19T13:54:44.090Z,4.50
2017-08-19T13:57:11.726Z,2.78
2017-08-19T13:59:39.449Z,3.83
2017-08-19T14:02:06.993Z,4.55
2017-08-19T14:04:34.575Z,3.25
2017-08-19T14:07:02.404Z,1.98
2017-08-19T14:09:29.989Z,4.45
2017-08-19T14:11:57.561Z,3.35
2017-08-19T14:14:25.123Z,2.30
2017-08-19T14:16:52.650Z,3.50
2017-08-19T14:19:20.277Z,2.67
2017-08-19T14:21:47.957Z,5.80
2017-08-19T14:24:15.506Z,75.93
2017-08-19T14:26:43.154Z,32.92
2017-08-19T14:29:10.770Z,18.23
2017-08-19T14:31:39.494Z,10.00
2017-08-19T14:34:07.052Z,5.07
2017-08-19T14:36:34.847Z,6.62
2017-08-19T14:39:02.434Z,4.10
2017-08-19T14:41:30.040Z,3.08
2017-08-19T14:43:57.647Z,7.80
2017-08-19T14:46:25.259Z,3.08
2017-08-19T14:48:52.915Z,2.35
2017-08-19T14:51:20.688Z,2.67
2017-08-19T14:53:48.250Z,2.75
2017-08-19T14:56:15.790Z,4.70
2017-08-19T14:58:43.465Z,2.80
2017-08-19T15:01:11.067Z,4.70
2017-08-19T15:03:38.606Z,7.93
2017-08-19T15:06:23.335Z,3.05
2017-08-19T15:08:51.813Z,4.53
2017-08-19T15:11:19.459Z,4.00
2017-08-19T15:13:47.035Z,4.15
2017-08-19T15:16:14.599Z,4.97
2017-08-19T15:18:42.287Z,3.60
2017-08-19T15:21:09.885Z,3.35
2017-08-19T15:23:37.488Z,3.40
2017-08-19T15:26:05.082Z,3.90
2017-08-19T15:28:32.715Z,5.68
2017-08-19T15:31:00.231Z,1.70
2017-08-19T15:33:27.824Z,3.50
2017-08-19T15:35:55.425Z,4.20
2017-08-19T15:38:23.042Z,2.40
2017-08-19T15:40:50.600Z,4.00
2017-08-19T15:43:18.179Z,5.07
2017-08-19T15:45:45.726Z,1.97
2017-08-19T15:48:13.283Z,4.20
2017-08-19T15:50:40.866Z,6.25
2017-08-19T15:53:08.417Z,1.87
2017-08-19T15:55:35.979Z,4.05
2017-08-19T15:58:03.534Z,2.78
2017-08-19T16:00:31.099Z,4.22
2017-08-19T16:02:58.670Z,4.85
2017-08-19T16:05:26.266Z,5.15
2017-08-19T16:07:53.843Z,3.35
2017-08-19T16:10:21.407Z,2.08
2017-08-19T16:12:49.008Z,2.75
2017-08-19T16:15:16.598Z,3.47
2017-08-19T16:17:44.169Z,2.92
2017-08-19T16:20:11.936Z,2.03
2017-08-19T16:22:40.335Z,1.83
2017-08-19T16:25:07.901Z,3.15
2017-08-19T16:27:35.526Z,1.90
2017-08-19T16:30:03.091Z,5.03
2017-08-19T16:32:30.644Z,2.62
2017-08-19T16:34:58.238Z,5.05
2017-08-19T16:37:25.765Z,1.90
2017-08-19T16:39:53.301Z,4.47
2017-08-19T16:42:20.923Z,3.00
2017-08-19T16:44:48.590Z,3.12
2017-08-19T16:47:16.362Z,8.88
2017-08-19T16:49:43.932Z,3.15
2017-08-19T16:52:11.497Z,4.30
2017-08-19T16:54:39.042Z,2.25
2017-08-19T16:57:06.600Z,8.40
2017-08-19T16:59:34.172Z,3.85
2017-08-19T17:02:01.699Z,11.27
2017-08-19T17:04:30.490Z,9.00
2017-08-19T17:06:58.046Z,3.08
2017-08-19T17:09:25.656Z,9.90
2017-08-19T17:11:53.246Z,8.20
2017-08-19T17:14:20.780Z,4.12
2017-08-19T17:16:48.351Z,7.50
2017-08-19T17:19:16.074Z,2.45
2017-08-19T17:21:43.594Z,5.12
2017-08-19T17:24:11.166Z,5.78
2017-08-19T17:26:38.890Z,9.55
2017-08-19T17:29:06.476Z,3.10
2017-08-19T17:31:34.035Z,10.57
2017-08-19T17:34:01.634Z,6.45
2017-08-19T17:36:29.186Z,3.35
2017-08-19T17:38:56.747Z,2.22
2017-08-19T17:41:24.348Z,5.37
2017-08-19T17:43:51.901Z,4.70
2017-08-19T17:46:19.415Z,3.72
2017-08-19T17:48:46.999Z,12.25
2017-08-19T17:51:14.546Z,3.30
2017-08-19T17:53:42.106Z,5.55
2017-08-19T17:56:09.720Z,6.90
2017-08-19T17:58:37.220Z,6.18
2017-08-19T18:01:04.775Z,4.43
2017-08-19T18:03:32.345Z,3.37
2017-08-19T18:05:59.913Z,4.97
2017-08-19T18:08:27.472Z,3.72
2017-08-19T18:10:55.152Z,3.80
2017-08-19T18:13:22.706Z,6.53
2017-08-19T18:15:50.388Z,5.72
2017-08-19T18:18:17.981Z,5.00
2017-08-19T18:20:45.572Z,5.05
2017-08-19T18:23:14.283Z,4.40
2017-08-19T18:25:41.862Z,6.03
2017-08-19T18:28:09.413Z,8.48
2017-08-19T18:30:36.962Z,5.60
2017-08-19T18:33:04.578Z,6.43
2017-08-19T18:35:32.126Z,4.28
2017-08-19T18:37:59.642Z,9.45
2017-08-19T18:40:27.322Z,9.65
2017-08-19T18:42:54.897Z,13.73
2017-08-19T18:45:22.473Z,11.98
2017-08-19T18:47:50.283Z,11.45
2017-08-19T18:50:17.829Z,16.00
2017-08-19T18:52:45.397Z,16.55
2017-08-19T18:55:13.014Z,8.95
2017-08-19T18:57:40.595Z,13.52
2017-08-19T19:00:08.146Z,11.50
2017-08-19T19:02:35.733Z,13.02
2017-08-19T19:05:03.312Z,5.90
2017-08-19T19:07:30.862Z,11.12
2017-08-19T19:09:58.402Z,6.15
2017-08-19T19:12:25.951Z,11.93
2017-08-19T19:14:54.755Z,7.10
2017-08-19T19:17:22.583Z,5.90
2017-08-19T19:19:50.091Z,7.43
2017-08-19T19:22:17.836Z,7.82
2017-08-19T19:24:45.397Z,5.97
2017-08-19T19:27:13.426Z,8.20
2017-08-19T19:29:40.951Z,11.50
2017-08-19T19:32:08.606Z,3.50
2017-08-19T19:40:13.952Z,5.93
2017-08-19T19:42:43.270Z,11.45
2017-08-19T19:45:10.852Z,3.80
2017-08-19T19:47:38.458Z,6.43
2017-08-19T19:50:06.695Z,6.37
2017-08-19T19:52:34.229Z,10.75
2017-08-19T19:55:06.267Z,11.95
2017-08-19T19:57:33.974Z,12.70
2017-08-19T20:00:04.903Z,14.25
2017-08-19T20:02:33.602Z,8.05
2017-08-19T20:05:01.277Z,9.43
2017-08-19T20:07:29.191Z,13.57
2017-08-19T20:09:56.940Z,11.27
2017-08-19T20:12:24.775Z,12.48
2017-08-19T20:14:52.358Z,10.00
2017-08-19T20:17:20.072Z,10.93
2017-08-19T20:19:47.875Z,12.25
2017-08-19T20:22:15.541Z,10.10
2017-08-19T20:24:43.178Z,15.55
2017-08-19T20:27:11.660Z,12.37
2017-08-19T20:29:39.979Z,9.48
2017-08-19T20:32:08.190Z,11.77
2017-08-19T20:34:35.759Z,13.55
2017-08-19T20:37:03.389Z,9.05
2017-08-19T20:39:31.103Z,12.30
2017-08-19T20:41:59.533Z,12.63
2017-08-19T20:44:27.215Z,11.38
2017-08-19T20:46:54.817Z,4.78
2017-08-19T20:49:22.414Z,4.62
2017-08-19T20:51:50.016Z,7.28
2017-08-19T20:54:17.551Z,7.07
2017-08-19T20:56:45.053Z,7.90
2017-08-19T20:59:12.671Z,6.93
2017-08-19T21:01:40.238Z,7.45
2017-08-19T21:04:07.813Z,11.90
2017-08-19T21:06:35.385Z,6.90
2017-08-19T21:09:03.009Z,7.57
2017-08-19T21:11:30.600Z,12.57
2017-08-19T21:13:58.238Z,6.22
2017-08-19T21:16:25.779Z,9.30
2017-08-19T21:18:53.303Z,9.93
2017-08-19T21:21:20.944Z,11.93
2017-08-19T21:23:48.510Z,12.48
2017-08-19T21:26:16.062Z,8.95
2017-08-19T21:28:43.703Z,8.65
2017-08-19T21:31:11.264Z,9.38
2017-08-19T21:33:38.816Z,7.60
2017-08-19T21:36:06.410Z,14.95
2017-08-19T21:38:33.986Z,7.40
2017-08-19T21:41:01.573Z,11.75
2017-08-19T21:43:29.182Z,7.43
2017-08-19T21:45:57.480Z,9.48
2017-08-19T21:48:25.054Z,11.50
2017-08-19T21:50:52.661Z,12.30
2017-08-19T21:53:20.211Z,9.40
2017-08-19T21:55:47.790Z,15.45
2017-08-19T21:58:15.403Z,10.40
2017-08-19T22:00:42.973Z,6.80
2017-08-19T22:03:10.533Z,12.80
2017-08-19T22:05:38.074Z,11.12
2017-08-19T22:08:05.644Z,9.07
2017-08-19T22:10:33.192Z,11.18
2017-08-19T22:13:00.826Z,11.35
2017-08-19T22:15:28.379Z,25.05
2017-08-19T22:17:55.950Z,9.25
2017-08-19T22:20:24.266Z,15.95
2017-08-19T22:22:52.587Z,13.80
2017-08-19T22:25:20.106Z,17.23
2017-08-19T22:27:48.449Z,10.60
2017-08-19T22:30:16.000Z,17.95
2017-08-19T22:32:43.542Z,16.83
2017-08-19T22:35:11.122Z,13.52
2017-08-19T22:37:38.681Z,9.95
2017-08-19T22:40:06.238Z,13.32
2017-08-19T22:42:33.885Z,8.30
2017-08-19T22:45:01.449Z,13.50
2017-08-19T22:47:28.999Z,11.25
2017-08-19T22:49:56.615Z,11.65
2017-08-19T22:52:24.218Z,11.12
2017-08-19T22:54:51.774Z,12.63
2017-08-19T22:57:19.361Z,17.70
2017-08-19T22:59:46.942Z,11.02
2017-08-19T23:02:14.482Z,10.95
2017-08-19T23:04:42.098Z,7.97
2017-08-19T23:07:09.632Z,15.07
2017-08-19T23:09:37.205Z,8.38
2017-08-19T23:12:04.796Z,9.27
2017-08-19T23:14:32.351Z,9.90
2017-08-19T23:16:59.918Z,9.38
2017-08-19T23:19:27.521Z,15.00
2017-08-19T23:21:55.057Z,8.73
2017-08-19T23:24:22.622Z,12.00
2017-08-19T23:26:50.188Z,11.90
2017-08-19T23:29:17.735Z,14.68
2017-08-19T23:31:45.250Z,9.70
2017-08-19T23:34:12.809Z,12.90
2017-08-19T23:36:40.391Z,8.32
2017-08-19T23:39:07.870Z,7.78
2017-08-19T23:41:35.458Z,11.52
2017-08-19T23:44:03.010Z,12.23
2017-08-19T23:46:30.554Z,13.32
2017-08-19T23:48:58.098Z,14.27
2017-08-19T23:51:25.689Z,12.68
2017-08-19T23:53:53.187Z,13.68
2017-08-19T23:56:20.790Z,10.77
2017-08-19T23:58:48.357Z,12.52
